Time;durP1;ratioP1;P1;durP2;ratioP2;P2;SDS_P1;SDS_P2;PMS_P1;PMS_P2;Temp;Humidity;BMP_temperature;BMP_pressure;BME280_temperature;BME280_humidity;BME280_pressure;Samples;Min_cycle;Max_cycle;Signal;HPM_P1;HPM_P2
2021/11/13 09:51:23;;;;;;;5.68;1.05;;;;;;;20.69;44.08;101738.34;5494313;23;20054;-79
2021/11/13 09:53:49;;;;;;;4.53;0.98;;;;;;;20.83;43.75;101749.00;4983272;28;21097;-78
2021/11/13 09:56:15;;;;;;;3.67;1.25;;;;;;;21.01;43.28;101745.53;4961675;28;21183;-76
2021/11/13 09:58:42;;;;;;;4.22;1.20;;;;;;;21.04;43.41;101753.13;4979831;28;20027;-78
2021/11/13 10:01:08;;;;;;;12.98;4.55;;;;;;;21.10;43.31;101759.22;4962355;28;20073;-76
2021/11/13 10:03:35;;;;;;;7.10;1.42;;;;;;;21.21;42.99;101765.03;4978835;28;20558;-75
2021/11/13 10:06:04;;;;;;;5.22;1.88;;;;;;;21.31;43.08;101761.72;4978521;28;20522;-76
2021/11/13 10:08:30;;;;;;;2.77;1.07;;;;;;;21.33;42.84;101762.19;4979254;28;20014;-75
2021/11/13 10:11:00;;;;;;;6.05;1.33;;;;;;;21.24;43.24;101767.91;4978449;28;20043;-80
2021/11/13 10:13:32;;;;;;;4.70;1.00;;;;;;;21.28;43.02;101770.78;4961200;28;20109;-75
2021/11/13 10:16:05;;;;;;;3.28;1.00;;;;;;;21.29;43.18;101772.41;4960745;28;20543;-76
2021/11/13 10:18:34;;;;;;;3.92;1.20;;;;;;;21.24;43.18;101775.44;4978500;28;20030;-77
2021/11/13 10:21:22;;;;;;;5.18;1.60;;;;;;;21.40;42.95;101769.88;4980214;28;20509;-78
2021/11/13 10:23:53;;;;;;;6.13;1.90;;;;;;;21.12;43.42;101772.75;4974811;28;20484;-75
2021/11/13 10:26:30;;;;;;;3.28;1.00;;;;;;;21.33;42.98;101774.09;4976864;28;20053;-76
2021/11/13 10:29:07;;;;;;;5.13;1.20;;;;;;;21.43;42.85;101771.94;4976031;28;20034;-75
2021/11/13 10:31:42;;;;;;;4.35;1.10;;;;;;;21.42;42.87;101776.69;4976243;28;20523;-76
2021/11/13 10:34:18;;;;;;;9.88;4.30;;;;;;;21.45;42.87;101775.94;4977194;28;20432;-79
2021/11/13 10:36:49;;;;;;;14.68;2.55;;;;;;;21.53;42.79;101785.25;4976190;28;20030;-79
2021/11/13 10:39:38;;;;;;;8.30;1.77;;;;;;;21.43;42.75;101789.41;4987473;28;20040;-76
2021/11/13 10:42:11;;;;;;;6.15;1.88;;;;;;;21.54;42.75;101781.34;4992497;28;20038;-76
2021/11/13 10:44:49;;;;;;;5.47;2.00;;;;;;;21.60;42.70;101791.78;4993070;28;20040;-78
2021/11/13 10:47:22;;;;;;;5.65;1.42;;;;;;;21.36;43.24;101796.78;4962365;28;20526;-77
2021/11/13 10:49:51;;;;;;;4.07;1.52;;;;;;;21.46;43.09;101791.50;4976475;28;20105;-75
2021/11/13 10:52:20;;;;;;;6.43;1.80;;;;;;;21.54;42.98;101787.72;4976079;28;20145;-75
2021/11/13 10:54:51;;;;;;;3.20;0.80;;;;;;;21.60;42.75;101799.34;4976929;28;20030;-76
2021/11/13 10:57:30;;;;;;;5.28;1.85;;;;;;;21.41;42.89;101794.53;4976770;28;20480;-77
2021/11/13 11:00:12;;;;;;;7.25;1.80;;;;;;;21.47;43.15;101783.97;4976146;28;20026;-78
2021/11/13 11:02:37;;;;;;;3.35;1.15;;;;;;;21.55;43.13;101785.72;4976658;28;20030;-75
2021/11/13 11:05:17;;;;;;;3.58;1.08;;;;;;;21.66;42.78;101789.53;4976953;28;20042;-78
2021/11/13 11:07:42;;;;;;;8.25;1.60;;;;;;;21.67;43.01;101788.38;4959953;28;20061;-76
2021/11/13 11:10:13;;;;;;;7.22;2.30;;;;;;;21.76;42.92;101788.97;4959571;28;20119;-77
2021/11/13 11:12:40;;;;;;;4.82;1.70;;;;;;;21.82;42.65;101786.72;4985097;28;21581;-76
2021/11/13 11:15:11;;;;;;;7.15;2.75;;;;;;;21.80;43.03;101786.28;4976639;28;20014;-76
2021/11/13 11:17:39;;;;;;;4.35;2.15;;;;;;;21.88;43.02;101782.47;4976800;28;20023;-76
2021/11/13 11:20:08;;;;;;;6.10;1.83;;;;;;;21.88;43.07;101771.34;4977241;28;20388;-76
2021/11/13 11:22:35;;;;;;;25.73;3.47;;;;;;;21.99;42.96;101777.97;4959606;28;20032;-75
2021/11/13 11:25:11;;;;;;;5.35;1.55;;;;;;;21.96;43.02;101778.66;4977241;28;20050;-75
2021/11/13 11:27:48;;;;;;;5.25;2.22;;;;;;;22.03;43.10;101787.16;4987283;28;20022;-74
2021/11/13 11:30:20;;;;;;;4.38;1.75;;;;;;;22.08;42.93;101780.53;4992992;28;20038;-73
2021/11/13 11:32:54;;;;;;;11.93;3.30;;;;;;;22.06;42.90;101783.63;4992811;28;20026;-75
2021/11/13 11:35:36;;;;;;;5.97;2.80;;;;;;;21.88;42.67;101780.50;4993012;28;20080;-76
2021/11/13 11:38:10;;;;;;;10.88;4.00;;;;;;;22.03;43.00;101778.81;4993005;28;20062;-73
2021/11/13 11:40:39;;;;;;;7.90;3.50;;;;;;;22.10;42.95;101776.22;4995799;28;20030;-75
2021/11/13 11:43:05;;;;;;;6.60;2.45;;;;;;;22.22;42.62;101774.44;4996886;28;20040;-75
2021/11/13 11:45:35;;;;;;;10.07;3.28;;;;;;;22.27;42.61;101768.59;4996830;28;20026;-74
2021/11/13 11:48:01;;;;;;;8.00;2.95;;;;;;;22.41;42.50;101766.06;4997074;28;20376;-75
2021/11/13 11:50:30;;;;;;;6.47;2.22;;;;;;;22.40;42.40;101765.28;4996514;28;20030;-74
2021/11/13 11:53:06;;;;;;;12.10;3.83;;;;;;;22.18;42.53;101759.66;4996779;28;20037;-75
2021/11/13 11:55:32;;;;;;;6.07;2.22;;;;;;;22.35;42.29;101756.41;4996830;28;20053;-74
2021/11/13 11:58:04;;;;;;;8.90;2.80;;;;;;;22.22;41.99;101753.00;4996809;28;20105;-74
2021/11/13 12:00:32;;;;;;;7.47;2.58;;;;;;;22.10;42.83;101753.16;4975412;28;20026;-75
2021/11/13 12:03:00;;;;;;;10.23;2.90;;;;;;;22.31;42.04;101749.97;4981041;28;20086;-75
2021/11/13 12:05:30;;;;;;;7.15;1.67;;;;;;;22.28;42.23;101743.16;4981589;28;20031;-75
2021/11/13 12:07:58;;;;;;;7.68;3.13;;;;;;;22.23;42.49;101745.44;4980556;28;20031;-74
2021/11/13 12:10:29;;;;;;;10.23;3.72;;;;;;;22.39;42.25;101740.59;4979920;28;20041;-77
2021/11/13 12:13:06;;;;;;;6.75;2.33;;;;;;;22.36;42.28;101758.00;4980195;28;20563;-80
2021/11/13 12:15:48;;;;;;;6.13;2.30;;;;;;;22.46;42.08;101756.63;4980209;28;20033;-75
2021/11/13 12:18:19;;;;;;;8.73;2.88;;;;;;;22.43;41.95;101767.31;4992635;28;20026;-76
2021/11/13 12:20:47;;;;;;;8.45;3.35;;;;;;;22.51;41.89;101762.66;4996340;28;20045;-75
2021/11/13 12:23:16;;;;;;;6.35;2.72;;;;;;;22.60;42.05;101768.84;4996164;28;20022;-75
2021/11/13 12:25:58;;;;;;;6.90;3.37;;;;;;;22.70;41.86;101776.56;4996081;28;20030;-74
2021/11/13 12:28:26;;;;;;;9.85;3.47;;;;;;;22.89;41.19;101775.72;4996026;28;20026;-74
2021/11/13 12:31:06;;;;;;;14.00;3.60;;;;;;;22.68;41.70;101784.50;4995918;28;20543;-77
2021/11/13 12:33:32;;;;;;;10.85;5.03;;;;;;;22.53;42.16;101788.19;4996123;28;20089;-76
2021/11/13 12:36:01;;;;;;;8.85;5.53;;;;;;;22.53;41.65;101781.81;4978536;28;20062;-74
2021/11/13 12:38:38;;;;;;;7.18;5.38;;;;;;;22.60;41.33;101791.13;4995976;28;20481;-74
2021/11/13 12:41:08;;;;;;;9.15;5.47;;;;;;;22.59;41.68;101783.91;4995806;28;20481;-74
2021/11/13 12:44:05;;;;;;;;;;;;;;;22.50;41.58;101796.47;4996240;28;20026;-74
2021/11/13 12:46:37;;;;;;;8.73;5.63;;;;;;;22.67;41.33;101801.56;4962919;28;19996;-76
2021/11/13 12:51:55;;;;;;;9.90;6.18;;;;;;;22.22;42.27;101797.53;4995059;28;20050;-74
2021/11/13 12:54:34;;;;;;;15.65;6.93;;;;;;;22.53;41.67;101795.75;4995631;28;20023;-76
2021/11/13 12:57:05;;;;;;;12.20;5.68;;;;;;;22.56;41.55;101789.44;4995658;28;20050;-76
2021/11/13 12:59:39;;;;;;;7.18;4.03;;;;;;;22.64;41.55;101791.16;4995504;28;20046;-76
2021/11/13 13:02:09;;;;;;;10.00;3.47;;;;;;;22.64;41.67;101796.75;4994279;28;20041;-76
2021/11/13 13:04:38;;;;;;;7.72;4.28;;;;;;;22.70;41.35;101804.41;4979217;28;20480;-77
2021/11/13 13:07:06;;;;;;;9.23;3.58;;;;;;;22.72;41.33;101806.84;4977860;28;20029;-77
2021/11/13 13:09:33;;;;;;;6.30;2.75;;;;;;;22.72;41.43;101815.19;4979043;28;20030;-75
2021/11/13 13:12:02;;;;;;;10.35;5.05;;;;;;;22.58;41.89;101810.16;4979866;28;20479;-75
2021/11/13 13:14:33;;;;;;;12.73;4.75;;;;;;;22.38;41.47;101814.97;4979535;28;20023;-78
2021/11/13 13:17:00;;;;;;;10.60;4.38;;;;;;;22.55;41.63;101810.91;4979246;28;20150;-77
2021/11/13 13:19:33;;;;;;;6.40;3.70;;;;;;;22.58;41.57;101812.13;4985782;28;20037;-78
2021/11/13 13:22:01;;;;;;;6.03;3.70;;;;;;;22.69;41.34;101808.38;4979249;28;20827;-77
2021/11/13 13:24:27;;;;;;;12.13;3.90;;;;;;;22.85;41.24;101805.50;4978667;28;20061;-76
2021/11/13 13:27:01;;;;;;;9.50;3.42;;;;;;;22.86;41.15;101797.97;4978725;28;20022;-75
2021/11/13 13:29:27;;;;;;;9.23;3.00;;;;;;;22.98;40.98;101800.56;4969862;28;20033;-78
2021/11/13 13:32:05;;;;;;;11.95;3.85;;;;;;;22.81;41.39;101801.00;4994861;28;20034;-73
2021/11/13 13:34:55;;;;;;;14.40;3.67;;;;;;;22.95;40.97;101799.31;4994955;28;20026;-76
2021/11/13 13:37:23;;;;;;;10.68;3.22;;;;;;;22.88;41.45;101810.34;4995116;28;20030;-77
2021/11/13 13:39:54;;;;;;;7.50;2.13;;;;;;;22.88;41.37;101807.56;4977324;28;20035;-77
2021/11/13 13:42:33;;;;;;;7.68;2.83;;;;;;;22.85;41.50;101813.03;4994872;28;20026;-75
2021/11/13 13:44:59;;;;;;;9.48;4.55;;;;;;;22.85;41.63;101819.44;4994838;28;20476;-76
2021/11/13 13:47:26;;;;;;;12.50;3.83;;;;;;;22.88;41.71;101806.75;4994517;28;20037;-79
2021/11/13 13:49:57;;;;;;;10.95;2.78;;;;;;;22.88;41.49;101815.09;4976941;28;20377;-75
2021/11/13 13:52:32;;;;;;;6.80;2.53;;;;;;;22.86;41.80;101820.25;4993758;28;20049;-75
2021/11/13 13:54:58;;;;;;;7.60;2.40;;;;;;;22.84;41.65;101806.66;4975448;28;20093;-76
2021/11/13 13:57:23;;;;;;;5.00;2.45;;;;;;;22.80;41.68;101804.97;4994509;28;20484;-77
2021/11/13 13:59:56;;;;;;;6.57;1.90;;;;;;;22.84;41.78;101811.44;4994212;28;20026;-76
2021/11/13 14:02:23;;;;;;;5.15;2.53;;;;;;;22.80;41.94;101810.56;4993620;28;20057;-74
2021/11/13 14:04:51;;;;;;;7.80;3.00;;;;;;;22.76;41.92;101806.91;4976693;28;20072;-77
2021/11/13 14:07:24;;;;;;;8.73;3.70;;;;;;;22.73;42.19;101811.22;4991346;28;20022;-75
2021/11/13 14:09:58;;;;;;;10.43;3.50;;;;;;;22.70;42.13;101807.22;4992301;28;20037;-75
2021/11/13 14:12:41;;;;;;;5.82;3.13;;;;;;;22.56;42.66;101803.34;4976237;28;20088;-76
2021/11/13 14:15:16;;;;;;;8.60;3.42;;;;;;;22.35;43.11;101812.91;4992618;28;20105;-75
2021/11/13 14:17:42;;;;;;;14.75;5.93;;;;;;;22.46;42.82;101817.88;4992135;28;20023;-75
2021/11/13 14:20:14;;;;;;;20.48;5.53;;;;;;;22.35;42.98;101823.22;4975110;28;20109;-76
2021/11/13 14:22:41;;;;;;;8.00;4.65;;;;;;;22.41;42.99;101817.00;4992617;28;20077;-76
2021/11/13 14:25:07;;;;;;;6.72;4.00;;;;;;;22.52;42.86;101822.78;4992566;28;20106;-73
2021/11/13 14:27:39;;;;;;;20.90;5.60;;;;;;;22.62;42.69;101826.94;4992806;28;20037;-74
2021/11/13 14:30:05;;;;;;;9.73;3.58;;;;;;;22.59;42.47;101817.31;4992488;28;20030;-74
2021/11/13 14:32:31;;;;;;;8.95;3.90;;;;;;;22.50;42.60;101824.31;4992193;28;20029;-73
2021/11/13 14:35:07;;;;;;;7.32;4.05;;;;;;;22.51;42.58;101829.50;4992700;28;20034;-76
2021/11/13 14:37:33;;;;;;;13.98;5.63;;;;;;;22.37;42.87;101834.81;4992443;28;20038;-75
2021/11/13 14:40:06;;;;;;;21.98;6.78;;;;;;;22.11;43.56;101829.91;4992365;28;20487;-78
2021/11/13 14:42:36;;;;;;;16.30;5.97;;;;;;;21.98;43.58;101826.41;4992455;28;20030;-75
2021/11/13 14:45:03;;;;;;;15.02;6.55;;;;;;;22.00;43.57;101829.66;4992763;28;20037;-74
2021/11/13 14:47:38;;;;;;;16.77;6.90;;;;;;;22.19;43.32;101828.88;4992216;28;20539;-74
2021/11/13 14:50:15;;;;;;;25.33;8.20;;;;;;;21.89;44.05;101821.06;4989654;28;20022;-75
2021/11/13 14:52:50;;;;;;;20.58;8.00;;;;;;;22.07;43.44;101815.09;4981608;28;20054;-75
2021/11/13 14:55:22;;;;;;;17.30;7.50;;;;;;;21.97;43.90;101804.53;4976951;28;20362;-74
2021/11/13 14:57:53;;;;;;;18.42;8.95;;;;;;;21.60;44.54;101811.25;4976651;28;20117;-74
2021/11/13 15:00:42;;;;;;;17.40;7.85;;;;;;;21.80;44.38;101808.53;4975574;28;20030;-75
2021/11/13 15:03:10;;;;;;;21.08;9.05;;;;;;;21.92;43.68;101825.09;4976703;28;20037;-75
2021/11/13 15:05:42;;;;;;;21.50;8.52;;;;;;;21.85;43.96;101822.16;4976521;28;20019;-74
2021/11/13 15:08:26;;;;;;;19.50;8.10;;;;;;;21.94;43.75;101817.19;4958814;28;20181;-75
2021/11/13 15:11:06;;;;;;;25.13;8.48;;;;;;;21.96;44.03;101825.97;4975487;28;20037;-77
2021/11/13 15:13:39;;;;;;;25.33;9.88;;;;;;;21.97;43.69;101807.31;4958338;28;20041;-75
2021/11/13 15:16:12;;;;;;;31.15;8.77;;;;;;;22.04;43.92;101829.72;4959066;28;20117;-75
2021/11/13 15:18:38;;;;;;;31.27;10.02;;;;;;;22.00;43.83;101829.66;4976230;28;20035;-76
2021/11/13 15:21:06;;;;;;;22.35;7.45;;;;;;;22.08;43.95;101837.00;4975760;28;20022;-75
2021/11/13 15:23:32;;;;;;;25.02;8.88;;;;;;;22.08;43.79;101837.00;4976275;28;20027;-76
2021/11/13 15:25:58;;;;;;;24.27;7.75;;;;;;;22.10;43.61;101837.44;4976052;28;20774;-76
2021/11/13 15:28:26;;;;;;;16.30;7.38;;;;;;;21.85;44.44;101838.84;4975517;28;20034;-76
2021/11/13 15:30:55;;;;;;;18.15;6.25;;;;;;;21.89;44.26;101840.53;4976454;28;20034;-76
2021/11/13 15:33:26;;;;;;;16.63;6.82;;;;;;;22.00;44.08;101834.41;4976104;28;20025;-77
2021/11/13 15:36:08;;;;;;;20.45;6.88;;;;;;;22.03;43.95;101840.03;4976675;28;20040;-75
2021/11/13 15:38:36;;;;;;;19.98;7.35;;;;;;;22.02;43.96;101840.41;4975839;28;20030;-75
2021/11/13 15:41:24;;;;;;;22.52;7.63;;;;;;;22.09;43.92;101841.41;4975518;28;20484;-75
2021/11/13 15:43:56;;;;;;;23.05;8.68;;;;;;;22.04;44.03;101836.09;4958410;28;20392;-76
2021/11/13 15:46:24;;;;;;;18.98;7.00;;;;;;;22.01;44.20;101847.16;4958642;28;20037;-75
2021/11/13 15:48:54;;;;;;;20.05;8.75;;;;;;;22.10;44.09;101845.78;4975596;28;20030;-74
2021/11/13 15:51:23;;;;;;;14.63;6.63;;;;;;;22.11;44.01;101841.03;4979083;28;20100;-75
2021/11/13 15:53:55;;;;;;;15.03;7.47;;;;;;;22.10;43.76;101845.00;4989346;28;20092;-74
2021/11/13 15:56:24;;;;;;;14.32;6.57;;;;;;;22.09;44.11;101852.53;4991660;28;20272;-74
2021/11/13 15:58:53;;;;;;;24.00;8.10;;;;;;;22.08;43.95;101841.78;4991695;28;20138;-75
2021/11/13 16:01:23;;;;;;;17.35;6.43;;;;;;;22.13;43.83;101853.41;4988876;28;20041;-77
2021/11/13 16:03:49;;;;;;;21.88;7.65;;;;;;;22.09;44.15;101849.75;4991559;28;20026;-77
2021/11/13 16:06:14;;;;;;;10.02;5.00;;;;;;;22.11;44.14;101843.81;4991357;28;20030;-74
2021/11/13 16:08:40;;;;;;;14.63;5.50;;;;;;;22.07;44.35;101845.69;4991441;28;20053;-74
2021/11/13 16:11:07;;;;;;;17.13;5.00;;;;;;;22.01;44.27;101845.19;4991367;28;20033;-74
2021/11/13 16:13:35;;;;;;;20.83;9.68;;;;;;;22.03;44.19;101845.59;4991370;28;20042;-73
2021/11/13 16:16:01;;;;;;;28.48;15.88;;;;;;;21.88;44.57;101844.50;4976083;28;20604;-74
2021/11/13 16:18:27;;;;;;;18.95;6.05;;;;;;;22.00;44.23;101839.97;4975997;28;20031;-75
2021/11/13 16:20:55;;;;;;;11.43;5.55;;;;;;;22.02;44.43;101848.75;4976668;28;20058;-75
2021/11/13 16:23:20;;;;;;;18.77;7.07;;;;;;;21.96;44.33;101851.00;4976850;28;20045;-74
2021/11/13 16:25:49;;;;;;;24.45;12.35;;;;;;;22.02;44.12;101851.53;4992688;28;20456;-76
2021/11/13 16:28:16;;;;;;;25.80;10.18;;;;;;;22.01;44.23;101861.06;4962842;28;20062;-77
2021/11/13 16:30:42;;;;;;;22.25;10.38;;;;;;;21.98;44.35;101862.59;4961084;28;20724;-75
2021/11/13 16:33:09;;;;;;;18.38;7.35;;;;;;;21.95;44.28;101868.88;4979370;28;20030;-74
2021/11/13 16:35:35;;;;;;;19.27;5.65;;;;;;;21.94;44.49;101870.06;4978655;28;20491;-75
2021/11/13 16:38:06;;;;;;;16.60;6.00;;;;;;;21.89;44.61;101867.56;4961126;28;20114;-75
2021/11/13 16:40:33;;;;;;;16.67;7.20;;;;;;;21.96;44.39;101878.03;4990775;28;20493;-76
2021/11/13 16:42:59;;;;;;;14.57;6.18;;;;;;;21.97;44.31;101883.22;4990421;28;20026;-75
2021/11/13 16:45:30;;;;;;;11.00;5.90;;;;;;;21.92;44.70;101883.53;4978429;28;20034;-73
2021/11/13 16:47:55;;;;;;;24.00;7.43;;;;;;;21.86;44.91;101882.19;4978993;28;20039;-76
2021/11/13 16:50:21;;;;;;;24.27;8.95;;;;;;;21.86;44.59;101883.00;4978260;28;20038;-75
2021/11/13 16:52:47;;;;;;;19.65;6.75;;;;;;;21.92;44.59;101889.09;4977843;28;20022;-73
2021/11/13 16:55:13;;;;;;;21.08;5.28;;;;;;;21.72;45.19;101879.88;4991666;28;20027;-81
2021/11/13 16:57:39;;;;;;;19.83;6.43;;;;;;;21.81;44.96;101882.47;4978180;28;20469;-85
2021/11/13 17:00:06;;;;;;;19.95;7.80;;;;;;;21.87;44.66;101879.03;4995788;28;20085;-78
2021/11/13 17:02:31;;;;;;;12.32;5.10;;;;;;;21.89;44.79;101884.25;4995374;28;20118;-77
2021/11/13 17:04:57;;;;;;;14.07;5.35;;;;;;;21.90;44.56;101880.28;4995534;28;20105;-78
2021/11/13 17:07:22;;;;;;;19.98;7.45;;;;;;;21.88;44.68;101883.44;4995405;28;20041;-77
2021/11/13 17:09:48;;;;;;;20.55;10.55;;;;;;;21.85;44.79;101886.16;4995323;28;20030;-77
2021/11/13 17:12:14;;;;;;;23.67;8.57;;;;;;;21.84;45.03;101876.19;4977820;28;20030;-77
2021/11/13 17:14:40;;;;;;;17.48;7.05;;;;;;;21.79;45.14;101887.59;4995265;28;20400;-77
2021/11/13 17:17:06;;;;;;;14.20;7.20;;;;;;;21.84;44.84;101890.91;4974390;28;20366;-78
2021/11/13 17:19:31;;;;;;;29.60;17.77;;;;;;;21.83;44.76;101891.25;4978662;28;20085;-79
2021/11/13 17:21:58;;;;;;;16.75;9.82;;;;;;;21.82;44.75;101887.66;4976862;28;20038;-77
2021/11/13 17:24:25;;;;;;;25.23;11.05;;;;;;;21.78;45.12;101900.69;4979756;28;20058;-77
2021/11/13 17:26:51;;;;;;;19.02;11.23;;;;;;;21.80;45.00;101894.78;4978705;28;20122;-78
2021/11/13 17:29:17;;;;;;;18.63;9.48;;;;;;;21.80;44.95;101898.34;4961419;28;21785;-77
2021/11/13 17:31:45;;;;;;;23.98;11.02;;;;;;;21.79;45.06;101890.38;4977761;28;20034;-76
2021/11/13 17:34:12;;;;;;;18.35;11.02;;;;;;;21.82;45.05;101890.44;4978158;28;20034;-80
2021/11/13 17:36:42;;;;;;;28.08;12.88;;;;;;;21.79;45.15;101902.31;4978262;28;20408;-83
2021/11/13 17:39:09;;;;;;;;;;;;;;;21.79;45.21;101901.50;4977970;28;20105;-82
2021/11/13 17:41:36;;;;;;;34.28;14.57;;;;;;;21.78;45.15;101902.69;4959863;28;19929;-82
2021/11/13 17:44:03;;;;;;;23.45;12.85;;;;;;;21.81;44.93;101904.72;4979228;28;20027;-78
2021/11/13 17:46:29;;;;;;;28.02;14.43;;;;;;;21.76;45.31;101911.34;4978329;28;20053;-77
2021/11/13 17:48:55;;;;;;;24.45;14.32;;;;;;;21.81;45.09;101921.41;4983605;28;20022;-77
2021/11/13 17:51:21;;;;;;;26.23;15.88;;;;;;;21.88;44.78;101921.59;4992540;28;20038;-77
2021/11/13 17:53:47;;;;;;;24.83;13.85;;;;;;;21.94;44.92;101916.56;4992005;28;20104;-78
2021/11/13 17:56:13;;;;;;;27.33;14.15;;;;;;;21.83;45.28;101921.84;4985304;28;20049;-78
2021/11/13 17:58:38;;;;;;;24.02;13.55;;;;;;;21.81;45.38;101926.97;4978031;28;20022;-79
2021/11/13 18:01:13;;;;;;;25.00;14.70;;;;;;;21.83;45.46;101927.41;4977505;28;20113;-79
2021/11/13 18:03:40;;;;;;;29.85;15.07;;;;;;;21.80;45.31;101923.41;4975997;28;20037;-77
2021/11/13 18:06:08;;;;;;;31.25;14.57;;;;;;;21.75;45.48;101920.06;4975331;28;20042;-75
2021/11/13 18:08:35;;;;;;;26.08;15.30;;;;;;;21.77;45.47;101926.09;4957147;28;20069;-75
2021/11/13 18:11:06;;;;;;;23.13;12.68;;;;;;;21.70;45.67;101937.88;4976837;28;20038;-74
2021/11/13 18:13:33;;;;;;;24.98;15.18;;;;;;;21.73;45.45;101939.91;4992087;28;20460;-74
2021/11/13 18:15:59;;;;;;;32.15;14.18;;;;;;;21.71;45.87;101950.59;4991491;28;20149;-76
2021/11/13 18:18:25;;;;;;;25.95;12.63;;;;;;;21.65;45.94;101952.03;4992004;28;20536;-75
2021/11/13 18:20:50;;;;;;;32.22;20.08;;;;;;;21.53;46.26;101954.88;4990898;28;20034;-75
2021/11/13 18:23:18;;;;;;;27.60;15.45;;;;;;;21.68;45.84;101956.06;4991174;28;20079;-76
2021/11/13 18:25:43;;;;;;;30.48;16.67;;;;;;;21.69;45.71;101952.09;4990747;28;20516;-76
2021/11/13 18:28:15;;;;;;;44.22;19.02;;;;;;;21.71;45.86;101958.13;4987746;28;20092;-78
2021/11/13 18:30:44;;;;;;;24.65;14.90;;;;;;;21.75;45.78;101959.00;4990529;28;20157;-76
2021/11/13 18:33:11;;;;;;;23.30;14.68;;;;;;;21.71;45.74;101958.94;4974245;28;20125;-77
2021/11/13 18:35:42;;;;;;;26.08;14.77;;;;;;;21.75;45.74;101951.47;4989170;28;20038;-76
2021/11/13 18:38:09;;;;;;;24.75;14.23;;;;;;;21.77;45.83;101949.16;4992121;28;20429;-76
2021/11/13 18:40:40;;;;;;;30.55;14.48;;;;;;;21.77;45.70;101951.16;4992514;28;20050;-76
2021/11/13 18:43:06;;;;;;;36.78;16.40;;;;;;;21.77;45.67;101965.06;4992235;28;20022;-75
2021/11/13 18:45:32;;;;;;;23.77;12.63;;;;;;;21.80;45.80;101970.69;4976679;28;20143;-72
2021/11/13 18:47:58;;;;;;;28.20;16.23;;;;;;;21.63;46.15;101964.69;4975461;28;20022;-74
2021/11/13 18:50:23;;;;;;;23.55;14.38;;;;;;;21.77;45.66;101970.63;4974901;28;20034;-75
2021/11/13 18:52:50;;;;;;;26.83;15.70;;;;;;;21.73;45.95;101966.91;4976215;28;20026;-79
2021/11/13 18:55:16;;;;;;;30.00;14.00;;;;;;;21.72;46.16;101965.31;4975545;28;20018;-75
2021/11/13 18:57:42;;;;;;;30.92;15.13;;;;;;;21.76;46.16;101971.75;4983138;28;20039;-74
2021/11/13 19:00:17;;;;;;;23.92;14.70;;;;;;;21.73;46.14;101964.13;4983140;28;20014;-79
2021/11/13 19:02:44;;;;;;;27.15;14.10;;;;;;;21.74;45.95;101968.53;4975118;28;20139;-78
2021/11/13 19:05:11;;;;;;;32.58;13.82;;;;;;;21.80;45.99;101962.34;4986629;28;20050;-76
2021/11/13 19:07:37;;;;;;;27.65;15.38;;;;;;;21.78;45.99;101963.88;4989844;28;20038;-78
2021/11/13 19:10:04;;;;;;;20.25;14.00;;;;;;;21.80;46.07;101961.53;4979282;28;20571;-78
2021/11/13 19:12:30;;;;;;;32.15;14.65;;;;;;;21.84;45.78;101954.09;4974638;28;20047;-77
2021/11/13 19:14:58;;;;;;;19.85;12.73;;;;;;;21.85;45.90;101939.81;4975057;28;20037;-79
2021/11/13 19:17:25;;;;;;;21.10;12.68;;;;;;;21.69;46.37;101955.72;4974532;28;20089;-76
2021/11/13 19:19:51;;;;;;;25.17;14.38;;;;;;;21.78;46.27;101955.53;4974211;28;20030;-77
2021/11/13 19:22:18;;;;;;;19.38;12.15;;;;;;;21.80;46.12;101958.75;4974379;28;20043;-75
2021/11/13 19:24:44;;;;;;;24.98;12.73;;;;;;;21.89;46.05;101959.38;4976255;28;20026;-86
2021/11/13 19:27:12;;;;;;;19.83;12.30;;;;;;;21.92;45.93;101963.44;4958438;28;20066;-81
2021/11/13 19:29:38;;;;;;;18.10;10.75;;;;;;;21.94;45.83;101967.44;4957089;28;20073;-76
2021/11/13 19:32:06;;;;;;;17.95;11.23;;;;;;;21.91;46.07;101964.56;4973463;28;20489;-78
2021/11/13 19:34:33;;;;;;;24.80;13.10;;;;;;;21.87;46.26;101970.06;4956620;28;20030;-80
2021/11/13 19:37:00;;;;;;;21.50;12.32;;;;;;;21.86;46.45;101972.03;4956292;28;20056;-80
2021/11/13 19:39:26;;;;;;;17.27;10.93;;;;;;;22.34;45.43;101958.84;4956894;28;20552;-82
2021/11/13 19:41:56;;;;;;;20.35;10.38;;;;;;;22.65;44.54;101962.69;4972678;28;20038;-81
2021/11/13 19:44:22;;;;;;;15.02;10.77;;;;;;;22.61;44.41;101962.63;4940393;28;20034;-80
2021/11/13 19:46:48;;;;;;;21.55;12.52;;;;;;;22.51;44.93;101962.38;4975276;28;20104;-75
2021/11/13 19:49:14;;;;;;;20.88;13.10;;;;;;;22.66;44.56;101970.69;4957823;28;20448;-77
2021/11/13 19:51:40;;;;;;;19.50;12.00;;;;;;;22.14;45.52;101971.09;4974192;28;20038;-74
2021/11/13 19:54:06;;;;;;;19.75;13.38;;;;;;;22.06;46.00;101966.53;4957045;28;20035;-77
2021/11/13 19:56:33;;;;;;;22.08;12.90;;;;;;;21.89;46.50;101973.28;4974520;28;20058;-78
2021/11/13 19:58:59;;;;;;;20.08;13.90;;;;;;;22.01;46.04;101975.16;4973019;28;20038;-78
2021/11/13 20:01:28;;;;;;;17.05;12.15;;;;;;;22.00;46.21;101988.28;4991853;28;20038;-79
2021/11/13 20:03:55;;;;;;;22.33;13.52;;;;;;;21.90;46.74;101980.47;4993363;28;20443;-79
2021/11/13 20:06:21;;;;;;;19.52;12.80;;;;;;;21.99;46.38;101983.88;4993461;28;20034;-77
2021/11/13 20:08:48;;;;;;;21.80;13.60;;;;;;;21.85;46.76;101991.88;4993275;28;20038;-76
2021/11/13 20:11:14;;;;;;;21.65;12.57;;;;;;;22.03;46.24;101983.94;4993429;28;20396;-76
2021/11/13 20:13:40;;;;;;;20.88;13.95;;;;;;;22.06;46.24;101983.22;4987019;28;20156;-76
2021/11/13 20:16:07;;;;;;;20.42;13.60;;;;;;;22.10;46.21;101981.38;4977855;28;20108;-75
2021/11/13 20:18:33;;;;;;;24.80;13.13;;;;;;;22.03;46.26;101987.53;4977829;28;20033;-73
2021/11/13 20:21:01;;;;;;;24.02;13.10;;;;;;;22.13;45.95;101989.78;4976217;28;20117;-75
2021/11/13 20:23:28;;;;;;;26.15;13.88;;;;;;;22.10;46.10;101992.50;4977771;28;20120;-77
2021/11/13 20:25:54;;;;;;;27.05;14.05;;;;;;;22.07;46.28;101982.06;4977424;28;20030;-74
2021/11/13 20:28:22;;;;;;;21.35;14.05;;;;;;;22.20;46.03;101982.78;4989563;28;20073;-72
2021/11/13 20:30:49;;;;;;;20.70;13.18;;;;;;;22.22;46.17;101986.00;4991029;28;20382;-80
2021/11/13 20:33:16;;;;;;;26.85;15.07;;;;;;;22.11;46.20;101989.34;4992988;28;20073;-79
2021/11/13 20:35:42;;;;;;;19.52;12.75;;;;;;;22.20;46.15;101999.47;4994116;28;20026;-79
2021/11/13 20:38:10;;;;;;;28.65;13.65;;;;;;;22.21;45.96;101996.34;4993030;28;20034;-78
2021/11/13 20:40:39;;;;;;;22.77;14.23;;;;;;;22.22;46.00;101997.13;4994037;28;20026;-76
2021/11/13 20:43:05;;;;;;;27.17;14.40;;;;;;;22.31;45.98;102000.56;4993653;28;20034;-76
2021/11/13 20:45:31;;;;;;;27.95;15.70;;;;;;;22.28;46.03;102007.63;4993979;28;20105;-77
2021/11/13 20:47:59;;;;;;;22.73;13.73;;;;;;;22.27;46.14;102005.22;4993334;28;20045;-76
2021/11/13 20:50:28;;;;;;;21.00;12.93;;;;;;;22.34;45.63;102017.31;4993614;28;20026;-76
2021/11/13 20:52:54;;;;;;;28.63;14.15;;;;;;;22.32;46.13;102010.53;4992555;28;20103;-76
2021/11/13 20:55:21;;;;;;;24.08;14.45;;;;;;;22.26;46.16;102009.97;4991142;28;20030;-76
2021/11/13 20:57:47;;;;;;;23.08;12.82;;;;;;;22.28;46.04;102001.25;4993509;28;20105;-78
2021/11/13 21:00:19;;;;;;;28.90;13.90;;;;;;;22.20;46.36;102007.84;4993518;28;20072;-76
2021/11/13 21:02:45;;;;;;;27.63;15.98;;;;;;;22.01;46.85;102025.25;4991864;28;20076;-77
2021/11/13 21:05:12;;;;;;;30.77;15.20;;;;;;;22.13;46.50;102025.16;4985688;28;20127;-77
2021/11/13 21:07:38;;;;;;;28.13;14.27;;;;;;;22.21;46.21;102020.59;4976942;28;20030;-78
2021/11/13 21:10:05;;;;;;;23.73;14.25;;;;;;;22.25;45.95;102024.28;4990252;28;20047;-76
2021/11/13 21:12:31;;;;;;;30.10;15.02;;;;;;;22.24;46.34;102025.44;4992676;28;20062;-75
2021/11/13 21:14:57;;;;;;;28.05;16.17;;;;;;;22.29;45.84;102025.16;4993401;28;20117;-75
2021/11/13 21:17:23;;;;;;;22.00;14.10;;;;;;;22.30;46.28;102026.78;4993975;28;20439;-76
2021/11/13 21:19:49;;;;;;;27.15;14.57;;;;;;;22.22;46.34;102036.09;4993622;28;20038;-75